Time;durP1;ratioP1;P1;durP2;ratioP2;P2;SDS_P1;SDS_P2;PMS_P1;PMS_P2;Temp;Humidity;BMP_temperature;BMP_pressure;BME280_temperature;BME280_humidity;BME280_pressure;Samples;Min_cycle;Max_cycle;Signal;HPM_P1;HPM_P2
2022/01/15 00:00:35;;;;;;;3.78;2.58;;;21.50;45.90;;;;;;5074233;28;47915;-60
2022/01/15 00:03:05;;;;;;;3.22;2.70;;;21.40;45.80;;;;;;5073783;28;20354;-60
2022/01/15 00:05:31;;;;;;;2.40;2.20;;;21.40;45.90;;;;;;5087387;28;20091;-60
2022/01/15 00:08:01;;;;;;;2.85;2.45;;;21.40;45.90;;;;;;5072152;28;20487;-60
2022/01/15 00:10:29;;;;;;;3.35;2.78;;;21.40;45.90;;;;;;5075898;28;20036;-60
2022/01/15 00:12:59;;;;;;;3.90;3.03;;;21.30;45.90;;;;;;5071926;28;20127;-60
2022/01/15 00:15:32;;;;;;;4.82;2.80;;;21.40;45.90;;;;;;5074033;28;42789;-60
2022/01/15 00:18:10;;;;;;;4.78;2.75;;;21.30;45.90;;;;;;5075930;28;20043;-60
2022/01/15 00:20:36;;;;;;;3.72;2.70;;;21.30;45.90;;;;;;5075281;28;20039;-60
2022/01/15 00:23:02;;;;;;;3.35;2.70;;;21.30;45.90;;;;;;5075761;28;20380;-60
2022/01/15 00:25:29;;;;;;;3.67;2.72;;;21.30;46.00;;;;;;5075040;28;20143;-60
2022/01/15 00:27:55;;;;;;;3.65;2.95;;;21.30;46.00;;;;;;5073748;28;20071;-60
2022/01/15 00:30:21;;;;;;;4.15;2.30;;;21.20;45.90;;;;;;5075101;28;43303;-60
2022/01/15 00:32:47;;;;;;;3.58;2.40;;;21.20;45.90;;;;;;5071441;28;20067;-60
2022/01/15 00:35:14;;;;;;;3.30;2.50;;;21.20;45.90;;;;;;5072516;28;20137;-60
2022/01/15 00:37:41;;;;;;;3.15;2.83;;;21.20;45.90;;;;;;5070370;28;20036;-60
2022/01/15 00:40:11;;;;;;;6.57;2.70;;;21.20;45.90;;;;;;5074123;28;20050;-60
2022/01/15 00:42:38;;;;;;;2.90;2.60;;;21.20;45.90;;;;;;5072726;28;40357;-60
2022/01/15 00:45:08;;;;;;;5.03;2.85;;;21.20;45.90;;;;;;5074455;28;20345;-60
2022/01/15 00:47:34;;;;;;;3.53;2.47;;;21.10;45.90;;;;;;5069633;28;20040;-60
2022/01/15 00:50:01;;;;;;;3.47;2.33;;;21.10;45.90;;;;;;5073431;28;20074;-60
2022/01/15 00:52:27;;;;;;;3.33;2.45;;;21.10;45.90;;;;;;5069285;28;20388;-60
2022/01/15 00:54:53;;;;;;;3.38;2.33;;;21.10;45.90;;;;;;5070483;28;20051;-60
2022/01/15 00:57:18;;;;;;;3.33;2.42;;;21.10;46.00;;;;;;5069157;28;38083;-60
2022/01/15 00:59:44;;;;;;;2.50;2.03;;;21.10;45.90;;;;;;5072182;28;20064;-60
2022/01/15 01:02:10;;;;;;;3.63;2.10;;;21.10;46.00;;;;;;5068002;28;20052;-60
2022/01/15 01:04:35;;;;;;;4.20;2.20;;;21.00;46.00;;;;;;5070012;28;20052;-60
2022/01/15 01:07:01;;;;;;;2.95;2.28;;;21.00;45.90;;;;;;5070948;28;20068;-60
2022/01/15 01:09:38;;;;;;;2.83;2.28;;;21.00;46.00;;;;;;5073725;28;20201;-60
2022/01/15 01:12:20;;;;;;;4.10;2.13;;;21.00;46.00;;;;;;5064851;28;22665;-60
2022/01/15 01:20:23;;;;;;;2.40;2.03;;;21.00;45.90;;;;;;5071497;28;20053;-60
2022/01/15 01:22:55;;;;;;;2.28;1.80;;;20.90;46.00;;;;;;5069048;28;20134;-59
2022/01/15 01:25:22;;;;;;;2.00;1.80;;;20.90;46.30;;;;;;5069159;28;43671;-60
2022/01/15 01:27:51;;;;;;;3.80;2.15;;;20.90;46.50;;;;;;5070383;28;20044;-60
2022/01/15 01:30:25;;;;;;;2.47;2.03;;;20.90;46.70;;;;;;5070351;28;20093;-61
2022/01/15 01:33:18;;;;;;;3.17;1.80;;;20.90;46.90;;;;;;5067744;28;20040;-60
2022/01/15 01:35:47;;;;;;;2.28;1.90;;;20.90;47.00;;;;;;5067300;28;20045;-60
2022/01/15 01:38:51;;;;;;;3.90;1.88;;;20.90;47.10;;;;;;5069437;28;20503;-60
2022/01/15 01:41:06;;;;;;;1.80;1.70;;;20.90;47.10;;;;;;5067129;28;20044;-60
2022/01/15 01:48:48;;;;;;;1.90;1.60;;;20.80;47.20;;;;;;5071974;28;20048;-60
2022/01/15 01:51:24;;;;;;;4.18;1.67;;;20.80;47.20;;;;;;5068007;28;20029;-60
2022/01/15 01:53:51;;;;;;;3.03;1.70;;;20.80;47.20;;;;;;5068413;28;40954;-60
2022/01/15 01:56:16;;;;;;;3.47;1.77;;;20.80;47.20;;;;;;5068123;28;20150;-60
2022/01/15 01:58:42;;;;;;;1.70;1.60;;;20.80;47.20;;;;;;5071049;28;20543;-60
2022/01/15 02:01:08;;;;;;;2.90;1.77;;;20.80;47.20;;;;;;5068682;28;20092;-60
2022/01/15 02:03:33;;;;;;;2.13;1.45;;;20.80;47.20;;;;;;5068140;28;20143;-60
2022/01/15 02:05:59;;;;;;;2.05;1.60;;;20.80;47.20;;;;;;5069506;28;20693;-60
2022/01/15 02:08:25;;;;;;;3.40;1.63;;;20.70;47.20;;;;;;5068735;28;43437;-60
2022/01/15 02:10:51;;;;;;;1.63;1.45;;;20.70;47.20;;;;;;5069165;28;20041;-59
2022/01/15 02:13:18;;;;;;;1.83;1.55;;;20.70;47.20;;;;;;5070287;28;20040;-60
2022/01/15 02:15:44;;;;;;;3.03;1.77;;;20.70;47.20;;;;;;5070672;28;20375;-60
2022/01/15 02:18:11;;;;;;;1.77;1.30;;;20.70;47.10;;;;;;5070353;28;20036;-60
2022/01/15 02:21:01;;;;;;;4.50;1.83;;;20.70;47.20;;;;;;5066330;28;20568;-60
2022/01/15 02:23:35;;;;;;;8.07;1.80;;;20.70;47.10;;;;;;5069372;28;20045;-60
2022/01/15 02:26:05;;;;;;;11.30;2.47;;;20.70;47.10;;;;;;5068608;28;20051;-60
2022/01/15 02:28:33;;;;;;;3.78;1.50;;;20.70;47.10;;;;;;5070393;28;20131;-59
2022/01/15 02:31:05;;;;;;;4.82;1.98;;;20.70;47.20;;;;;;5065571;28;20105;-60
2022/01/15 02:33:31;;;;;;;4.20;1.50;;;20.70;47.10;;;;;;5070452;28;20048;-60
2022/01/15 02:35:58;;;;;;;5.55;1.67;;;20.60;47.10;;;;;;5065449;28;40509;-60
2022/01/15 02:38:24;;;;;;;5.57;1.60;;;20.60;47.00;;;;;;5070595;28;20071;-60
2022/01/15 02:40:50;;;;;;;4.47;1.38;;;20.60;47.00;;;;;;5065121;28;20784;-60
2022/01/15 02:43:19;;;;;;;5.53;1.35;;;20.60;47.00;;;;;;5069162;28;20039;-60
2022/01/15 02:46:00;;;;;;;4.68;1.48;;;20.60;47.00;;;;;;5067152;28;20132;-60
2022/01/15 02:48:29;;;;;;;6.38;1.80;;;20.60;47.00;;;;;;5065947;28;20429;-59
2022/01/15 02:50:56;;;;;;;9.27;2.10;;;20.60;47.00;;;;;;5064444;28;43231;-60
2022/01/15 02:53:22;;;;;;;6.68;1.65;;;20.60;47.00;;;;;;5067587;28;20064;-60
2022/01/15 02:55:51;;;;;;;7.55;1.55;;;20.60;47.00;;;;;;5070638;28;20054;-59
2022/01/15 02:58:18;;;;;;;7.53;1.70;;;20.50;46.80;;;;;;5067784;28;20047;-60
2022/01/15 03:00:44;;;;;;;6.45;1.50;;;20.60;46.90;;;;;;5061460;28;20032;-60
2022/01/15 03:03:10;;;;;;;4.65;1.60;;;20.50;46.90;;;;;;5061187;28;40263;-60
2022/01/15 03:05:36;;;;;;;2.33;1.33;;;20.50;46.80;;;;;;5065411;28;20052;-60
2022/01/15 03:08:03;;;;;;;3.08;1.40;;;20.50;46.90;;;;;;5065470;28;20047;-60
2022/01/15 03:10:28;;;;;;;5.20;1.77;;;20.50;46.80;;;;;;5070885;28;20052;-60
2022/01/15 03:12:56;;;;;;;6.18;1.70;;;20.50;46.80;;;;;;5067976;28;20039;-60
2022/01/15 03:15:22;;;;;;;8.98;1.45;;;20.50;46.80;;;;;;5071223;28;20048;-59
2022/01/15 03:17:48;;;;;;;2.05;1.40;;;20.50;46.80;;;;;;5062470;28;43680;-60
2022/01/15 03:20:15;;;;;;;2.83;1.40;;;20.50;46.70;;;;;;5065062;28;20070;-59
2022/01/15 03:22:41;;;;;;;3.60;1.23;;;20.50;47.40;;;;;;5065659;28;20046;-59
2022/01/15 03:25:08;;;;;;;3.53;1.35;;;20.50;46.70;;;;;;5070957;28;20044;-59
2022/01/15 03:27:33;;;;;;;4.20;1.20;;;20.50;46.70;;;;;;5070513;28;20163;-60
2022/01/15 03:29:59;;;;;;;3.13;1.10;;;20.40;46.70;;;;;;5069342;28;20082;-60
2022/01/15 03:32:24;;;;;;;7.32;1.35;;;20.50;46.70;;;;;;5065258;28;40255;-60
2022/01/15 03:34:50;;;;;;;2.20;1.27;;;20.40;46.60;;;;;;5067115;28;20529;-60
2022/01/15 03:37:16;;;;;;;1.50;1.05;;;20.40;46.60;;;;;;5066123;28;20044;-60
2022/01/15 03:39:44;;;;;;;2.78;1.08;;;20.40;46.60;;;;;;5066718;28;20062;-60
2022/01/15 03:42:12;;;;;;;1.73;1.00;;;20.40;47.30;;;;;;5071843;28;20147;-59
2022/01/15 03:44:46;;;;;;;2.05;0.98;;;20.40;46.60;;;;;;5069899;28;20476;-59
2022/01/15 03:47:13;;;;;;;3.65;0.93;;;20.40;46.60;;;;;;5067346;28;37900;-60
2022/01/15 03:49:40;;;;;;;1.40;1.02;;;20.40;46.60;;;;;;5064538;28;20036;-60
2022/01/15 03:52:07;;;;;;;1.92;0.82;;;20.40;46.50;;;;;;5070745;28;20044;-60
2022/01/15 03:54:34;;;;;;;2.13;0.90;;;20.40;46.50;;;;;;5065563;28;20044;-60
2022/01/15 03:57:00;;;;;;;2.80;1.48;;;20.40;46.60;;;;;;5071344;28;20048;-59
2022/01/15 03:59:26;;;;;;;2.83;1.23;;;20.40;46.50;;;;;;5064919;28;45481;-60
2022/01/15 04:01:52;;;;;;;1.05;0.90;;;20.40;46.50;;;;;;5070396;28;20039;-59
2022/01/15 04:04:18;;;;;;;0.80;0.80;;;20.40;46.50;;;;;;5065962;28;20511;-60
2022/01/15 04:06:44;;;;;;;2.80;1.00;;;20.30;46.40;;;;;;5068726;28;20036;-60
2022/01/15 04:09:10;;;;;;;1.13;0.90;;;20.30;46.40;;;;;;5049768;28;20400;-60
2022/01/15 04:11:36;;;;;;;1.48;0.88;;;20.30;46.40;;;;;;5066828;28;20055;-59
2022/01/15 04:14:03;;;;;;;1.25;0.80;;;20.30;46.40;;;;;;5065408;28;45653;-60
2022/01/15 04:16:29;;;;;;;1.52;0.80;;;20.30;46.40;;;;;;5066493;28;20041;-60
2022/01/15 04:18:59;;;;;;;1.63;0.73;;;20.30;46.40;;;;;;5067140;28;20036;-60
2022/01/15 04:21:26;;;;;;;2.72;0.90;;;20.30;46.40;;;;;;5067772;28;20431;-60
2022/01/15 04:23:51;;;;;;;1.90;0.73;;;20.30;46.30;;;;;;5054191;28;20048;-60
2022/01/15 04:26:22;;;;;;;1.63;0.90;;;20.30;46.30;;;;;;5071300;28;20127;-60
2022/01/15 04:28:48;;;;;;;;;;;20.30;46.30;;;;;;5070625;28;37967;-59
2022/01/15 04:31:14;;;;;;;0.90;0.90;;;20.30;46.20;;;;;;5070535;28;21012;-60
2022/01/15 04:33:39;;;;;;;1.17;0.80;;;20.20;46.40;;;;;;5072125;28;20054;-59
2022/01/15 04:36:07;;;;;;;0.95;0.77;;;20.20;46.30;;;;;;5072028;28;20047;-59
2022/01/15 04:38:36;;;;;;;0.95;0.85;;;20.20;46.20;;;;;;5071329;28;20043;-60
2022/01/15 04:41:02;;;;;;;0.70;0.70;;;20.20;46.20;;;;;;5070453;28;20051;-60
2022/01/15 04:43:28;;;;;;;1.10;0.75;;;20.20;46.20;;;;;;5071607;28;42854;-59
2022/01/15 04:45:53;;;;;;;1.10;0.55;;;20.20;46.20;;;;;;5068632;28;20089;-60
2022/01/15 04:48:19;;;;;;;0.60;0.60;;;20.20;46.10;;;;;;5073230;28;20120;-60
2022/01/15 04:50:45;;;;;;;0.98;0.50;;;20.20;46.10;;;;;;5068670;28;20036;-59
2022/01/15 04:53:11;;;;;;;0.63;0.43;;;20.20;46.10;;;;;;5072274;28;20178;-60
2022/01/15 04:55:38;;;;;;;0.60;0.60;;;20.20;46.10;;;;;;5068116;28;38243;-60
2022/01/15 04:58:05;;;;;;;1.85;0.50;;;20.20;46.10;;;;;;5073874;28;20107;-60
2022/01/15 05:00:32;;;;;;;1.75;0.60;;;20.20;46.10;;;;;;5063441;28;20059;-60
2022/01/15 05:02:57;;;;;;;0.70;0.60;;;20.20;46.00;;;;;;5068097;28;20462;-60
2022/01/15 05:05:24;;;;;;;0.60;0.57;;;20.10;46.00;;;;;;5067311;28;20109;-59
2022/01/15 05:07:53;;;;;;;0.50;0.50;;;20.20;46.00;;;;;;5070611;28;20040;-60
2022/01/15 05:10:23;;;;;;;0.68;0.60;;;20.20;46.00;;;;;;5064747;28;43336;-60
2022/01/15 05:12:49;;;;;;;0.82;0.60;;;20.10;46.00;;;;;;5070069;28;20055;-60
2022/01/15 05:15:17;;;;;;;0.77;0.70;;;20.10;45.90;;;;;;5072034;28;20035;-60
2022/01/15 05:17:43;;;;;;;0.65;0.60;;;20.10;45.90;;;;;;5070288;28;20036;-60
2022/01/15 05:20:10;;;;;;;0.70;0.70;;;20.10;45.90;;;;;;5066169;28;20063;-59
2022/01/15 05:22:36;;;;;;;0.80;0.68;;;20.10;45.90;;;;;;5068933;28;20039;-60
2022/01/15 05:25:03;;;;;;;0.95;0.60;;;20.10;45.90;;;;;;5071427;28;42893;-60
2022/01/15 05:27:29;;;;;;;0.75;0.60;;;20.10;45.90;;;;;;5070419;28;20122;-59
2022/01/15 05:29:54;;;;;;;0.77;0.77;;;20.10;45.90;;;;;;5073030;28;20116;-59
2022/01/15 05:32:23;;;;;;;0.55;0.55;;;20.10;45.90;;;;;;5070211;28;20064;-59
2022/01/15 05:34:49;;;;;;;0.73;0.73;;;20.10;45.90;;;;;;5070582;28;20100;-59
2022/01/15 05:37:15;;;;;;;0.60;0.60;;;20.10;45.90;;;;;;5069454;28;20425;-60
2022/01/15 05:39:40;;;;;;;0.80;0.80;;;20.10;46.60;;;;;;5065024;28;38321;-60
2022/01/15 05:42:06;;;;;;;1.02;0.70;;;20.10;45.90;;;;;;5071347;28;20082;-60
2022/01/15 05:44:33;;;;;;;0.80;0.60;;;20.00;45.80;;;;;;5070859;28;20040;-60
2022/01/15 05:46:59;;;;;;;0.60;0.60;;;20.10;45.90;;;;;;5071369;28;20188;-61
2022/01/15 05:49:24;;;;;;;1.20;0.60;;;20.00;46.00;;;;;;5068400;28;20053;-60
2022/01/15 05:51:50;;;;;;;0.60;0.60;;;20.10;46.00;;;;;;5060460;28;42938;-60
2022/01/15 05:54:15;;;;;;;0.95;0.60;;;20.00;46.10;;;;;;5070075;28;20036;-60
2022/01/15 05:56:42;;;;;;;1.00;0.55;;;20.00;46.10;;;;;;5067493;28;20044;-60
2022/01/15 05:59:08;;;;;;;0.73;0.50;;;20.00;46.20;;;;;;5069153;28;20044;-59
2022/01/15 06:01:35;;;;;;;0.50;0.50;;;20.00;46.30;;;;;;5068058;28;20040;-60
2022/01/15 06:04:00;;;;;;;0.60;0.50;;;20.10;46.40;;;;;;5070935;28;20435;-60
2022/01/15 06:06:26;;;;;;;0.30;0.30;;;20.10;46.40;;;;;;5066635;28;43127;-60
2022/01/15 06:08:52;;;;;;;0.93;0.60;;;20.10;46.50;;;;;;5069793;28;20526;-61
2022/01/15 06:11:18;;;;;;;0.63;0.52;;;20.00;46.50;;;;;;5067725;28;20040;-60
2022/01/15 06:13:47;;;;;;;0.57;0.57;;;20.10;46.60;;;;;;5069967;28;20059;-60
2022/01/15 06:16:14;;;;;;;0.65;0.60;;;20.10;46.50;;;;;;5067695;28;20043;-60
2022/01/15 06:18:39;;;;;;;0.50;0.50;;;20.10;46.60;;;;;;5070096;28;20495;-60
2022/01/15 06:21:05;;;;;;;0.55;0.50;;;20.10;46.60;;;;;;5067597;28;40837;-61
2022/01/15 06:23:30;;;;;;;0.82;0.57;;;20.10;46.60;;;;;;5067909;28;20142;-61
2022/01/15 06:25:56;;;;;;;0.40;0.40;;;20.10;46.60;;;;;;5070815;28;20365;-60
2022/01/15 06:28:22;;;;;;;2.15;0.75;;;20.10;46.50;;;;;;5068430;28;20033;-60
2022/01/15 06:30:48;;;;;;;1.73;0.50;;;20.10;46.50;;;;;;5072590;28;20404;-59
2022/01/15 06:33:15;;;;;;;1.23;0.50;;;20.10;46.50;;;;;;5069871;28;20129;-60
2022/01/15 06:35:41;;;;;;;0.47;0.47;;;20.10;46.50;;;;;;5067118;28;48143;-60
2022/01/15 06:38:07;;;;;;;0.63;0.50;;;20.10;46.50;;;;;;5067025;28;20045;-60
2022/01/15 06:40:32;;;;;;;0.40;0.40;;;20.10;46.50;;;;;;5070092;28;20392;-61
2022/01/15 06:43:00;;;;;;;1.00;0.40;;;20.10;46.50;;;;;;5069581;28;20040;-60
2022/01/15 06:45:26;;;;;;;0.88;0.50;;;20.10;46.50;;;;;;5067518;28;20037;-60
2022/01/15 06:47:52;;;;;;;0.40;0.40;;;20.20;46.50;;;;;;5069135;28;20246;-60
2022/01/15 06:50:18;;;;;;;0.73;0.50;;;20.20;46.50;;;;;;5065756;28;40404;-60
2022/01/15 06:52:43;;;;;;;0.77;0.50;;;20.20;46.50;;;;;;5068517;28;20635;-60
2022/01/15 06:55:10;;;;;;;1.23;0.60;;;20.20;46.50;;;;;;5069404;28;20062;-61
2022/01/15 06:57:36;;;;;;;0.65;0.60;;;20.20;46.40;;;;;;5068646;28;20056;-60
2022/01/15 07:00:04;;;;;;;0.50;0.50;;;20.20;46.40;;;;;;5071464;28;20028;-61
2022/01/15 07:02:30;;;;;;;0.60;0.40;;;20.20;46.40;;;;;;5063022;28;43167;-60
2022/01/15 07:04:55;;;;;;;1.60;0.60;;;20.20;46.30;;;;;;5070358;28;20056;-61
2022/01/15 07:07:21;;;;;;;0.55;0.55;;;20.20;46.30;;;;;;5067577;28;20551;-60
2022/01/15 07:09:46;;;;;;;0.40;0.40;;;20.20;46.30;;;;;;5070798;28;20923;-60
2022/01/15 07:12:12;;;;;;;0.40;0.40;;;20.20;46.30;;;;;;5069580;28;20117;-60
2022/01/15 07:14:38;;;;;;;0.82;0.50;;;20.20;46.20;;;;;;5069009;28;20635;-61
2022/01/15 07:17:03;;;;;;;0.85;0.73;;;20.20;46.20;;;;;;5067472;28;40395;-60
2022/01/15 07:19:31;;;;;;;0.50;0.50;;;20.20;46.20;;;;;;5067144;28;20048;-60
2022/01/15 07:21:57;;;;;;;0.45;0.45;;;20.20;46.10;;;;;;5070277;28;20047;-60
2022/01/15 07:24:22;;;;;;;0.60;0.60;;;20.20;46.10;;;;;;5065061;28;20116;-60
2022/01/15 07:26:49;;;;;;;0.50;0.50;;;20.30;46.10;;;;;;5070180;28;20047;-60
2022/01/15 07:29:15;;;;;;;0.40;0.40;;;20.30;46.10;;;;;;5069256;28;20119;-60
2022/01/15 07:31:42;;;;;;;1.13;0.60;;;20.30;46.10;;;;;;5070035;28;43610;-60
2022/01/15 07:34:08;;;;;;;0.47;0.40;;;20.30;46.10;;;;;;5069293;28;20083;-59
2022/01/15 07:36:34;;;;;;;0.60;0.60;;;20.30;46.10;;;;;;5069202;28;20044;-62
2022/01/15 07:39:00;;;;;;;0.52;0.50;;;20.30;46.00;;;;;;5068525;28;20060;-59
2022/01/15 07:41:26;;;;;;;0.50;0.50;;;20.30;46.10;;;;;;5067669;28;20059;-59
2022/01/15 07:43:51;;;;;;;0.60;0.60;;;20.30;46.10;;;;;;5069338;28;20040;-58
2022/01/15 07:46:17;;;;;;;1.40;0.80;;;20.30;46.00;;;;;;5067178;28;46069;-59
2022/01/15 07:48:42;;;;;;;2.40;0.70;;;20.30;46.00;;;;;;5070986;28;20773;-60
2022/01/15 07:51:08;;;;;;;1.85;0.80;;;20.40;46.00;;;;;;5068897;28;20130;-59
2022/01/15 07:53:34;;;;;;;0.60;0.60;;;20.40;46.00;;;;;;5058864;28;20047;-58
2022/01/15 07:55:59;;;;;;;0.90;0.73;;;20.40;46.00;;;;;;5065257;28;20048;-59
2022/01/15 07:58:25;;;;;;;0.70;0.70;;;20.40;46.00;;;;;;5066399;28;38078;-59
2022/01/15 08:00:50;;;;;;;0.93;0.93;;;20.40;46.00;;;;;;5074828;28;20388;-60
2022/01/15 08:03:16;;;;;;;1.73;1.08;;;20.40;46.10;;;;;;5065460;28;20060;-60
2022/01/15 08:05:42;;;;;;;2.28;0.80;;;20.40;46.20;;;;;;5066971;28;20478;-61
2022/01/15 08:08:07;;;;;;;0.93;0.80;;;20.40;46.30;;;;;;5065422;28;20098;-59
2022/01/15 08:10:33;;;;;;;2.10;0.90;;;20.40;46.50;;;;;;5066831;28;20071;-60
2022/01/15 08:12:59;;;;;;;0.95;0.93;;;20.40;46.40;;;;;;5069265;28;45410;-60
2022/01/15 08:15:25;;;;;;;1.13;0.70;;;20.50;46.50;;;;;;5070142;28;20430;-60
2022/01/15 08:17:51;;;;;;;1.25;0.80;;;20.50;46.40;;;;;;5067067;28;20454;-61
2022/01/15 08:20:17;;;;;;;3.75;0.98;;;20.50;46.50;;;;;;5068868;28;20032;-59
2022/01/15 08:22:44;;;;;;;1.48;1.05;;;20.50;46.50;;;;;;5072564;28;20051;-59
2022/01/15 08:25:16;;;;;;;0.90;0.90;;;20.50;46.60;;;;;;5063999;28;20055;-58
2022/01/15 08:27:42;;;;;;;0.80;0.73;;;20.50;46.50;;;;;;5066657;28;40632;-59
2022/01/15 08:30:08;;;;;;;1.83;1.13;;;20.50;46.50;;;;;;5067459;28;20391;-60
2022/01/15 08:32:34;;;;;;;1.50;1.40;;;20.50;46.50;;;;;;5071514;28;20090;-58
2022/01/15 08:34:59;;;;;;;1.27;1.00;;;20.50;46.50;;;;;;5069984;28;20044;-60
2022/01/15 08:37:25;;;;;;;1.17;1.00;;;20.60;46.70;;;;;;5070194;28;20409;-60
2022/01/15 08:39:50;;;;;;;1.30;1.10;;;20.60;46.50;;;;;;5067610;28;20032;-60
2022/01/15 08:42:16;;;;;;;7.43;1.48;;;20.60;46.50;;;;;;5068375;28;38145;-59
2022/01/15 08:44:44;;;;;;;1.38;1.00;;;20.60;46.50;;;;;;5068979;28;20151;-59
2022/01/15 08:47:09;;;;;;;2.05;1.40;;;20.60;46.50;;;;;;5067618;28;20792;-59
2022/01/15 08:49:36;;;;;;;1.30;1.20;;;20.60;46.50;;;;;;5069197;28;20032;-59
2022/01/15 08:52:02;;;;;;;1.55;1.30;;;20.60;46.40;;;;;;5066080;28;20055;-60
2022/01/15 08:54:28;;;;;;;1.30;1.20;;;20.60;46.40;;;;;;5064940;28;45600;-59
2022/01/15 08:56:53;;;;;;;2.05;1.20;;;20.70;46.30;;;;;;5069020;28;20047;-60
2022/01/15 08:59:19;;;;;;;2.17;1.30;;;20.60;46.30;;;;;;5067124;28;20043;-60
2022/01/15 09:01:45;;;;;;;1.80;1.20;;;20.70;46.20;;;;;;5068583;28;20032;-60
2022/01/15 09:04:11;;;;;;;1.20;1.10;;;20.70;46.20;;;;;;5066924;28;20044;-59
2022/01/15 09:06:39;;;;;;;2.15;1.58;;;20.60;46.10;;;;;;5069878;28;20075;-60
2022/01/15 09:09:05;;;;;;;2.85;1.20;;;20.70;46.10;;;;;;5062327;28;43078;-59
2022/01/15 09:11:31;;;;;;;2.50;1.40;;;20.70;46.00;;;;;;5064990;28;20139;-60
2022/01/15 09:13:56;;;;;;;1.10;1.00;;;20.70;46.00;;;;;;5068545;28;20045;-59
2022/01/15 09:16:22;;;;;;;1.27;1.10;;;20.70;45.90;;;;;;5069181;28;20042;-60
2022/01/15 09:18:47;;;;;;;2.53;1.17;;;20.70;46.00;;;;;;5070590;28;20032;-58
2022/01/15 09:21:13;;;;;;;2.35;0.85;;;20.70;46.00;;;;;;5065054;28;20114;-59
2022/01/15 09:23:39;;;;;;;2.97;1.20;;;20.70;46.10;;;;;;5068812;28;40518;-60
2022/01/15 09:26:06;;;;;;;2.03;1.02;;;20.70;46.10;;;;;;5064123;28;20395;-60
2022/01/15 09:31:16;;;;;;;1.73;1.20;;;20.70;46.30;;;;;;5066968;28;20044;-59
2022/01/15 09:33:42;;;;;;;1.83;1.20;;;20.80;46.50;;;;;;5068340;28;20044;-61
2022/01/15 09:36:07;;;;;;;1.55;0.90;;;20.80;46.60;;;;;;5065449;28;20123;-59
2022/01/15 09:38:33;;;;;;;1.35;0.90;;;20.80;46.70;;;;;;5066126;28;37624;-59
2022/01/15 09:40:59;;;;;;;3.80;0.90;;;20.80;46.70;;;;;;5065335;28;20040;-59
2022/01/15 09:43:25;;;;;;;2.22;1.00;;;20.80;46.70;;;;;;5067762;28;20115;-59
2022/01/15 09:45:51;;;;;;;1.67;0.85;;;20.90;46.80;;;;;;5067409;28;20051;-59
2022/01/15 09:48:18;;;;;;;1.10;1.00;;;20.90;46.90;;;;;;5067378;28;20047;-60
2022/01/15 09:50:46;;;;;;;1.65;0.95;;;20.90;46.80;;;;;;5062762;28;38648;-59
2022/01/15 09:53:16;;;;;;;1.23;0.85;;;20.90;46.80;;;;;;5068635;28;20036;-60
2022/01/15 09:55:43;;;;;;;2.38;0.90;;;20.90;46.70;;;;;;5064753;28;20040;-60
2022/01/15 09:58:08;;;;;;;1.88;1.13;;;20.90;46.80;;;;;;5069693;28;20043;-60
2022/01/15 10:00:34;;;;;;;1.13;1.02;;;20.90;46.80;;;;;;5066264;28;20032;-59
2022/01/15 10:03:00;;;;;;;4.53;1.08;;;20.90;46.90;;;;;;5066249;28;20039;-58
2022/01/15 10:05:26;;;;;;;0.82;0.70;;;20.90;46.80;;;;;;5061842;28;27853;-59
2022/01/15 10:08:00;;;;;;;3.25;1.00;;;20.90;46.90;;;;;;5066740;28;20130;-60
2022/01/15 10:10:28;;;;;;;2.22;0.98;;;21.00;46.90;;;;;;5067551;28;20058;-60
2022/01/15 10:12:55;;;;;;;1.10;0.98;;;20.90;46.90;;;;;;5067396;28;20032;-60
2022/01/15 10:15:21;;;;;;;1.48;0.80;;;21.00;46.90;;;;;;5067318;28;20054;-59
2022/01/15 10:17:47;;;;;;;2.70;1.05;;;21.00;46.90;;;;;;5064303;28;20064;-59
2022/01/15 10:20:17;;;;;;;1.40;0.93;;;21.00;46.90;;;;;;5061914;28;40398;-60
2022/01/15 10:22:45;;;;;;;3.33;1.10;;;21.00;46.80;;;;;;5067425;28;20123;-59
2022/01/15 10:25:18;;;;;;;2.45;0.90;;;21.00;46.80;;;;;;5068940;28;20146;-59
2022/01/15 10:27:50;;;;;;;1.75;0.90;;;21.00;46.80;;;;;;5068943;28;20044;-60
2022/01/15 10:30:17;;;;;;;2.55;1.20;;;21.00;46.80;;;;;;5065456;28;20076;-58
2022/01/15 10:32:55;;;;;;;1.95;1.00;;;21.00;46.80;;;;;;5068113;28;20090;-60
2022/01/15 10:35:22;;;;;;;1.67;1.30;;;21.00;46.70;;;;;;5065848;28;20032;-59
2022/01/15 10:38:09;;;;;;;1.08;0.93;;;21.00;46.70;;;;;;5064985;28;20085;-60
2022/01/15 10:40:45;;;;;;;2.03;1.20;;;21.00;46.60;;;;;;5068401;28;20088;-59
2022/01/15 10:43:13;;;;;;;1.38;1.20;;;21.00;46.60;;;;;;5066989;28;20416;-59
2022/01/15 10:45:52;;;;;;;2.53;1.10;;;21.00;46.60;;;;;;5066720;28;20070;-59
2022/01/15 10:48:27;;;;;;;2.72;1.20;;;21.00;46.50;;;;;;5063878;28;29967;-59
2022/01/15 10:50:56;;;;;;;1.48;1.38;;;21.00;47.20;;;;;;5065912;28;20039;-59
2022/01/15 10:53:36;;;;;;;2.10;1.30;;;21.10;46.50;;;;;;5066900;28;20198;-59
2022/01/15 10:56:02;;;;;;;1.48;1.10;;;21.00;46.30;;;;;;5064166;28;20060;-59
2022/01/15 10:58:28;;;;;;;2.42;1.38;;;21.00;46.30;;;;;;5065142;28;20040;-58
2022/01/15 11:00:54;;;;;;;2.53;1.33;;;21.00;46.20;;;;;;5066358;28;20056;-61
2022/01/15 11:03:20;;;;;;;1.20;1.00;;;21.00;46.10;;;;;;5065338;28;38113;-59
2022/01/15 11:05:47;;;;;;;1.35;1.20;;;21.00;46.10;;;;;;5070038;28;20044;-64
2022/01/15 11:08:14;;;;;;;1.73;1.33;;;21.00;46.10;;;;;;5065582;28;20040;-60
2022/01/15 11:10:54;;;;;;;2.58;1.40;;;21.00;46.10;;;;;;5067890;28;20066;-60
2022/01/15 11:13:26;;;;;;;3.53;1.50;;;21.00;46.00;;;;;;5063410;28;20057;-58
2022/01/15 11:15:59;;;;;;;2.60;1.40;;;21.00;46.00;;;;;;5067641;28;37816;-60
2022/01/15 11:18:28;;;;;;;4.05;1.40;;;21.00;46.00;;;;;;5064764;28;20040;-60
2022/01/15 11:20:57;;;;;;;4.95;1.75;;;21.00;46.10;;;;;;5068007;28;20058;-60
2022/01/15 11:23:27;;;;;;;1.98;1.50;;;21.00;46.10;;;;;;5065690;28;20463;-59
2022/01/15 11:25:54;;;;;;;2.10;1.35;;;21.00;46.30;;;;;;5066894;28;20032;-60
2022/01/15 11:28:25;;;;;;;1.90;1.60;;;21.00;46.40;;;;;;5064289;28;20048;-60
2022/01/15 11:30:54;;;;;;;;;;;21.00;46.50;;;;;;5061279;28;43252;-59
2022/01/15 11:33:28;;;;;;;2.70;1.45;;;21.00;46.60;;;;;;5066615;28;19977;-60
2022/01/15 11:35:54;;;;;;;3.40;1.50;;;21.00;46.80;;;;;;5063444;28;20048;-61
2022/01/15 11:38:44;;;;;;;4.70;1.65;;;21.00;46.90;;;;;;5063203;28;20047;-59
2022/01/15 11:41:27;;;;;;;2.65;1.70;;;21.00;46.90;;;;;;5067103;28;20046;-60
2022/01/15 11:43:57;;;;;;;2.63;1.50;;;21.00;47.00;;;;;;5059538;28;42912;-60
2022/01/15 11:46:28;;;;;;;7.63;1.73;;;21.00;47.20;;;;;;5069008;28;20633;-60
2022/01/15 11:49:24;;;;;;;3.83;1.63;;;21.00;47.00;;;;;;5061471;28;20109;-59
2022/01/15 11:51:51;;;;;;;3.90;1.92;;;21.00;47.00;;;;;;5065398;28;20064;-60
2022/01/15 11:54:17;;;;;;;4.00;2.03;;;21.00;47.00;;;;;;5064969;28;20044;-59
2022/01/15 11:56:43;;;;;;;2.38;2.05;;;21.00;47.10;;;;;;5065701;28;20036;-60
2022/01/15 11:59:35;;;;;;;4.53;2.15;;;21.00;47.00;;;;;;5063562;28;43244;-60
2022/01/15 12:02:04;;;;;;;5.38;2.40;;;21.00;47.00;;;;;;5035698;28;20056;-60
2022/01/15 12:04:35;;;;;;;4.38;2.17;;;21.00;47.10;;;;;;5069479;28;20110;-60
2022/01/15 12:07:01;;;;;;;2.50;1.70;;;21.00;47.00;;;;;;5072614;28;20051;-60
2022/01/15 12:09:40;;;;;;;3.78;2.00;;;21.00;47.00;;;;;;5065168;28;20044;-60
2022/01/15 12:12:18;;;;;;;3.03;1.80;;;21.00;46.90;;;;;;5067821;28;43204;-60
2022/01/15 12:14:47;;;;;;;3.30;2.20;;;21.00;46.90;;;;;;5067616;28;20173;-60
2022/01/15 12:17:22;;;;;;;4.35;1.90;;;21.00;46.90;;;;;;5070049;28;20063;-59
2022/01/15 12:19:48;;;;;;;3.97;2.00;;;21.00;46.80;;;;;;5062675;28;20302;-60
2022/01/15 12:22:33;;;;;;;3.05;2.00;;;21.00;46.90;;;;;;5065575;28;20041;-60
2022/01/15 12:24:58;;;;;;;3.20;1.98;;;21.00;46.90;;;;;;5059435;28;20074;-59
2022/01/15 12:27:29;;;;;;;2.05;1.83;;;21.00;46.90;;;;;;5062226;28;40758;-59
2022/01/15 12:30:06;;;;;;;;;;;21.00;47.00;;;;;;5047943;28;20040;-59
2022/01/15 12:32:38;;;;;;;2.03;1.70;;;21.00;47.00;;;;;;5057818;28;20261;-59
2022/01/15 12:35:05;;;;;;;2.08;1.85;;;20.90;47.00;;;;;;5063667;28;20047;-60
2022/01/15 12:37:31;;;;;;;6.05;2.30;;;21.00;47.00;;;;;;5063626;28;20037;-59
2022/01/15 12:39:57;;;;;;;3.63;2.00;;;21.00;47.00;;;;;;5057084;28;43378;-59
2022/01/15 12:42:30;;;;;;;4.35;1.77;;;21.00;46.90;;;;;;5063508;28;20117;-60
2022/01/15 12:44:57;;;;;;;3.08;2.10;;;20.90;46.90;;;;;;5063685;28;20083;-59
2022/01/15 12:47:23;;;;;;;2.90;2.10;;;21.00;47.00;;;;;;5070374;28;20040;-60
2022/01/15 12:49:54;;;;;;;2.88;2.20;;;21.00;46.90;;;;;;5064913;28;20047;-59
2022/01/15 12:52:23;;;;;;;2.08;1.90;;;20.90;46.80;;;;;;5066557;28;20048;-60
2022/01/15 12:54:51;;;;;;;3.80;2.15;;;20.90;46.70;;;;;;5068395;28;40674;-60
2022/01/15 12:57:36;;;;;;;2.70;2.13;;;20.90;46.80;;;;;;5070765;28;20491;-58
2022/01/15 13:00:11;;;;;;;8.40;2.15;;;20.90;47.40;;;;;;5073412;28;20083;-60
2022/01/15 13:02:36;;;;;;;4.03;2.38;;;20.90;46.70;;;;;;5071568;28;20509;-60
2022/01/15 13:05:03;;;;;;;4.20;2.13;;;20.90;46.60;;;;;;5072314;28;20060;-60